Time;durP1;ratioP1;P1;durP2;ratioP2;P2;SDS_P1;SDS_P2;PMS_P1;PMS_P2;Temp;Humidity;BMP_temperature;BMP_pressure;BME280_temperature;BME280_humidity;BME280_pressure;Samples;Min_cycle;Max_cycle;Signal;HPM_P1;HPM_P2
2021/03/18 00:01:47;;;;;;;11.30;8.03;;;;;;;;;;5003686;28;20226;-51
2021/03/18 00:04:16;;;;;;;10.90;7.60;;;;;;;;;;5008095;28;20200;-48
2021/03/18 00:06:44;;;;;;;11.07;7.30;;;;;;;;;;5006479;28;20199;-50
2021/03/18 00:09:13;;;;;;;8.87;7.23;;;;;;;;;;5002192;28;20203;-49
2021/03/18 00:11:39;;;;;;;11.50;8.20;;;;;;;;;;5003621;28;20195;-49
2021/03/18 00:14:07;;;;;;;10.50;7.77;;;;;;;;;;5005527;28;20199;-50
2021/03/18 00:16:32;;;;;;;11.77;8.27;;;;;;;;;;4993134;28;20241;-48
2021/03/18 00:18:58;;;;;;;11.40;7.83;;;;;;;;;;5001479;28;20626;-49
2021/03/18 00:21:23;;;;;;;11.67;8.20;;;;;;;;;;4997613;28;20222;-49
2021/03/18 00:23:50;;;;;;;14.00;9.00;;;;;;;;;;5006401;28;20196;-50
2021/03/18 00:26:21;;;;;;;13.33;9.83;;;;;;;;;;5008624;28;20219;-49
2021/03/18 00:28:46;;;;;;;14.13;9.73;;;;;;;;;;5000544;28;20204;-51
2021/03/18 00:31:12;;;;;;;13.47;9.20;;;;;;;;;;4988337;28;20191;-49
2021/03/18 00:33:38;;;;;;;10.70;8.67;;;;;;;;;;5008037;28;20226;-49
2021/03/18 00:36:03;;;;;;;14.13;8.07;;;;;;;;;;5002988;28;20847;-50
2021/03/18 00:38:29;;;;;;;14.17;9.67;;;;;;;;;;5004126;28;20222;-49
2021/03/18 00:41:05;;;;;;;15.57;10.13;;;;;;;;;;5007045;28;20671;-47
2021/03/18 00:43:31;;;;;;;12.93;9.73;;;;;;;;;;5006502;28;20639;-53
2021/03/18 00:45:56;;;;;;;15.63;10.60;;;;;;;;;;5009605;28;20265;-50
2021/03/18 00:48:23;;;;;;;18.40;10.20;;;;;;;;;;5003295;28;20562;-51
2021/03/18 00:50:51;;;;;;;16.67;9.83;;;;;;;;;;5002332;28;20180;-50
2021/03/18 00:53:28;;;;;;;18.97;10.83;;;;;;;;;;4989379;28;20204;-47
2021/03/18 00:55:55;;;;;;;17.40;11.23;;;;;;;;;;5007289;28;20219;-48
2021/03/18 00:58:21;;;;;;;17.07;10.13;;;;;;;;;;5005166;28;20214;-51
2021/03/18 01:00:54;;;;;;;15.37;10.10;;;;;;;;;;4999604;28;20688;-49
2021/03/18 01:03:21;;;;;;;13.43;8.33;;;;;;;;;;4989927;28;20195;-50
2021/03/18 01:05:50;;;;;;;11.97;7.93;;;;;;;;;;5008331;28;20235;-51
2021/03/18 01:08:18;;;;;;;14.87;8.93;;;;;;;;;;5007633;28;20215;-48
2021/03/18 01:10:52;;;;;;;14.83;9.87;;;;;;;;;;5000062;28;20215;-51
2021/03/18 01:13:19;;;;;;;17.50;11.13;;;;;;;;;;4981214;28;20191;-49
2021/03/18 01:15:50;;;;;;;16.30;10.80;;;;;;;;;;5005584;28;20675;-50
2021/03/18 01:18:17;;;;;;;16.13;10.87;;;;;;;;;;5007864;28;20696;-52
2021/03/18 01:20:43;;;;;;;16.97;11.27;;;;;;;;;;5004342;28;20190;-47
2021/03/18 01:23:09;;;;;;;18.03;10.87;;;;;;;;;;5004727;28;20207;-52
2021/03/18 01:25:34;;;;;;;20.73;10.87;;;;;;;;;;5003045;28;20600;-51
2021/03/18 01:27:59;;;;;;;14.87;9.97;;;;;;;;;;4987612;28;20245;-51
2021/03/18 01:30:29;;;;;;;13.30;8.77;;;;;;;;;;5003657;28;20869;-50
2021/03/18 01:32:55;;;;;;;17.50;10.57;;;;;;;;;;5000513;28;20238;-47
2021/03/18 01:35:22;;;;;;;16.53;10.80;;;;;;;;;;5003209;28;20246;-48
2021/03/18 01:37:49;;;;;;;19.17;12.07;;;;;;;;;;4991694;28;20183;-48
2021/03/18 01:40:18;;;;;;;18.60;10.53;;;;;;;;;;5007577;28;20214;-49
2021/03/18 01:42:44;;;;;;;21.13;11.60;;;;;;;;;;5002219;28;20218;-48
2021/03/18 01:45:11;;;;;;;16.80;10.40;;;;;;;;;;5005911;28;20891;-47
2021/03/18 01:47:43;;;;;;;14.77;10.20;;;;;;;;;;4990866;28;20182;-52
2021/03/18 01:50:10;;;;;;;13.30;9.70;;;;;;;;;;5005521;28;20666;-48
2021/03/18 01:52:36;;;;;;;12.93;8.80;;;;;;;;;;5004315;28;20191;-51
2021/03/18 01:55:02;;;;;;;12.47;8.57;;;;;;;;;;5005413;28;20208;-48
2021/03/18 01:57:28;;;;;;;14.67;9.80;;;;;;;;;;5003620;28;20287;-49
2021/03/18 01:59:54;;;;;;;14.13;9.53;;;;;;;;;;5007857;28;20290;-50
2021/03/18 02:02:19;;;;;;;14.93;10.03;;;;;;;;;;4988395;28;20219;-48
2021/03/18 02:04:45;;;;;;;14.30;9.30;;;;;;;;;;5011866;28;20215;-51
2021/03/18 02:07:10;;;;;;;15.47;9.57;;;;;;;;;;5007413;28;20273;-48
2021/03/18 02:09:36;;;;;;;14.00;10.30;;;;;;;;;;5001356;28;20233;-47
2021/03/18 02:12:01;;;;;;;15.93;10.87;;;;;;;;;;5002163;28;20237;-48
2021/03/18 02:14:26;;;;;;;19.83;10.27;;;;;;;;;;5008982;28;20196;-48
2021/03/18 02:16:58;;;;;;;18.33;10.67;;;;;;;;;;5005945;28;20188;-49
2021/03/18 02:20:05;;;;;;;15.50;9.90;;;;;;;;;;5007235;28;20190;-49
2021/03/18 02:22:58;;;;;;;17.83;9.73;;;;;;;;;;4997822;28;20683;-48
2021/03/18 02:25:25;;;;;;;14.97;10.20;;;;;;;;;;4988665;28;20219;-52
2021/03/18 02:28:13;;;;;;;15.60;10.67;;;;;;;;;;5002558;28;20306;-50
2021/03/18 02:30:56;;;;;;;19.50;11.90;;;;;;;;;;5010346;28;20198;-49
2021/03/18 02:33:55;;;;;;;14.17;10.97;;;;;;;;;;4993935;28;20187;-47
2021/03/18 02:36:26;;;;;;;17.73;11.40;;;;;;;;;;5007633;28;20231;-47
2021/03/18 02:38:56;;;;;;;15.67;11.47;;;;;;;;;;5011151;28;20201;-50
2021/03/18 02:41:28;;;;;;;19.33;11.87;;;;;;;;;;5002901;28;20215;-51
2021/03/18 02:44:18;;;;;;;19.70;12.13;;;;;;;;;;5009594;28;20219;-47
2021/03/18 02:46:44;;;;;;;20.17;12.00;;;;;;;;;;4993653;28;20211;-50
2021/03/18 02:49:11;;;;;;;17.17;11.97;;;;;;;;;;5005514;28;20251;-48
2021/03/18 02:51:39;;;;;;;18.13;11.43;;;;;;;;;;4997457;28;20603;-51
2021/03/18 02:54:10;;;;;;;16.87;11.27;;;;;;;;;;5001001;28;20223;-50
2021/03/18 02:56:44;;;;;;;17.07;11.07;;;;;;;;;;4994502;28;20207;-48
2021/03/18 02:59:13;;;;;;;20.13;11.37;;;;;;;;;;5007938;28;20207;-49
2021/03/18 03:01:45;;;;;;;18.43;12.50;;;;;;;;;;5011738;28;20554;-51
2021/03/18 03:04:14;;;;;;;19.67;12.90;;;;;;;;;;5004161;28;20195;-50
2021/03/18 03:06:42;;;;;;;23.60;13.53;;;;;;;;;;5001238;28;20569;-50
2021/03/18 03:09:08;;;;;;;22.57;13.60;;;;;;;;;;5004838;28;20223;-52
2021/03/18 03:11:36;;;;;;;20.73;14.00;;;;;;;;;;5013171;28;20262;-51
2021/03/18 03:14:04;;;;;;;20.50;12.90;;;;;;;;;;4998963;28;20345;-49
2021/03/18 03:16:29;;;;;;;19.30;12.13;;;;;;;;;;4997288;28;20215;-53
2021/03/18 03:18:55;;;;;;;22.03;13.00;;;;;;;;;;4983237;28;20250;-48
2021/03/18 03:21:22;;;;;;;19.13;12.23;;;;;;;;;;5015266;28;20868;-48
2021/03/18 03:23:48;;;;;;;17.73;12.17;;;;;;;;;;5007843;28;20190;-52
2021/03/18 03:26:19;;;;;;;20.83;12.10;;;;;;;;;;4998206;28;20220;-48
2021/03/18 03:28:46;;;;;;;22.03;12.47;;;;;;;;;;4992748;28;20213;-49
2021/03/18 03:31:11;;;;;;;22.77;13.70;;;;;;;;;;4993686;28;20253;-49
2021/03/18 03:33:38;;;;;;;22.87;13.63;;;;;;;;;;5015868;28;20606;-51
2021/03/18 03:36:04;;;;;;;15.63;11.47;;;;;;;;;;5008114;28;20868;-53
2021/03/18 03:38:30;;;;;;;16.27;11.40;;;;;;;;;;4992462;28;20188;-51
2021/03/18 03:40:55;;;;;;;22.57;12.80;;;;;;;;;;5008156;28;20227;-48
2021/03/18 03:43:21;;;;;;;18.23;12.07;;;;;;;;;;4993611;28;20194;-47
2021/03/18 03:45:48;;;;;;;18.77;11.63;;;;;;;;;;5010539;28;20249;-50
2021/03/18 03:48:14;;;;;;;18.00;10.87;;;;;;;;;;5014676;28;20196;-51
2021/03/18 03:50:40;;;;;;;16.47;10.67;;;;;;;;;;5011195;28;20274;-47
2021/03/18 03:53:16;;;;;;;18.87;13.00;;;;;;;;;;5013010;28;20190;-49
2021/03/18 03:56:03;;;;;;;17.67;11.80;;;;;;;;;;4990445;28;20580;-49
2021/03/18 03:58:29;;;;;;;18.37;11.87;;;;;;;;;;4998838;28;20278;-49
2021/03/18 04:00:57;;;;;;;21.80;13.37;;;;;;;;;;5009145;28;20318;-50
2021/03/18 04:03:25;;;;;;;19.13;12.97;;;;;;;;;;5015958;28;20197;-52
2021/03/18 04:05:56;;;;;;;21.90;13.20;;;;;;;;;;4999614;28;20210;-50
2021/03/18 04:08:24;;;;;;;21.87;14.00;;;;;;;;;;5010759;28;20264;-48
2021/03/18 04:10:51;;;;;;;27.17;15.77;;;;;;;;;;5005963;28;20686;-47
2021/03/18 04:13:16;;;;;;;27.57;15.70;;;;;;;;;;5012883;28;20354;-49
2021/03/18 04:15:44;;;;;;;28.27;16.50;;;;;;;;;;4994417;28;20757;-52
2021/03/18 04:18:11;;;;;;;27.87;16.37;;;;;;;;;;5005643;28;20221;-50
2021/03/18 04:20:38;;;;;;;26.43;14.20;;;;;;;;;;5014912;28;20183;-49
2021/03/18 04:23:06;;;;;;;24.40;14.27;;;;;;;;;;4990813;28;20274;-48
2021/03/18 04:25:33;;;;;;;22.67;13.40;;;;;;;;;;5003028;28;20217;-50
2021/03/18 04:27:59;;;;;;;21.87;12.77;;;;;;;;;;5005337;28;20226;-49
2021/03/18 04:30:27;;;;;;;22.03;14.07;;;;;;;;;;5003573;28;20601;-47
2021/03/18 04:32:53;;;;;;;30.03;14.87;;;;;;;;;;5007274;28;20207;-51
2021/03/18 04:35:20;;;;;;;16.70;11.17;;;;;;;;;;5014328;28;20225;-51
2021/03/18 04:37:45;;;;;;;19.60;12.97;;;;;;;;;;5002757;28;20200;-51
2021/03/18 04:40:14;;;;;;;25.80;14.23;;;;;;;;;;5011873;28;20202;-50
2021/03/18 04:42:40;;;;;;;18.50;11.40;;;;;;;;;;5006399;28;20259;-50
2021/03/18 04:45:07;;;;;;;22.30;14.47;;;;;;;;;;5015180;28;20213;-50
2021/03/18 04:47:34;;;;;;;22.17;14.23;;;;;;;;;;5003160;28;20184;-48
2021/03/18 04:50:01;;;;;;;21.87;14.60;;;;;;;;;;5004798;28;20257;-48
2021/03/18 04:52:26;;;;;;;25.30;15.63;;;;;;;;;;5008165;28;20249;-50
2021/03/18 04:54:51;;;;;;;31.53;16.63;;;;;;;;;;5016283;28;20737;-51
2021/03/18 04:57:21;;;;;;;36.63;18.87;;;;;;;;;;4994010;28;20195;-49
2021/03/18 04:59:47;;;;;;;34.40;18.43;;;;;;;;;;5007016;28;20191;-50
2021/03/18 05:02:13;;;;;;;38.90;20.07;;;;;;;;;;5011652;28;20299;-54
2021/03/18 05:04:40;;;;;;;37.00;20.83;;;;;;;;;;5006608;28;20226;-51
2021/03/18 05:07:06;;;;;;;42.37;20.13;;;;;;;;;;5011536;28;20199;-51
2021/03/18 05:09:33;;;;;;;35.87;20.27;;;;;;;;;;5004040;28;20191;-48
2021/03/18 05:11:59;;;;;;;37.97;19.73;;;;;;;;;;5008012;28;20223;-48
2021/03/18 05:14:26;;;;;;;37.97;20.37;;;;;;;;;;5011763;28;20217;-52
2021/03/18 05:16:52;;;;;;;36.77;19.77;;;;;;;;;;5007056;28;20203;-51
2021/03/18 05:19:18;;;;;;;43.03;20.13;;;;;;;;;;5011933;28;20660;-48
2021/03/18 05:21:45;;;;;;;37.67;18.87;;;;;;;;;;5013006;28;20298;-47
2021/03/18 05:24:12;;;;;;;36.13;18.73;;;;;;;;;;5015056;28;20257;-54
2021/03/18 05:26:38;;;;;;;30.67;18.20;;;;;;;;;;5008088;28;20598;-50
2021/03/18 05:29:04;;;;;;;39.63;20.80;;;;;;;;;;5009833;28;20183;-48
2021/03/18 05:31:32;;;;;;;45.13;20.77;;;;;;;;;;5004181;28;20196;-50
2021/03/18 05:33:57;;;;;;;40.37;20.60;;;;;;;;;;4991312;28;20599;-48
2021/03/18 05:36:22;;;;;;;31.63;18.10;;;;;;;;;;5004096;28;20214;-49
2021/03/18 05:38:48;;;;;;;25.77;15.60;;;;;;;;;;5005779;28;20183;-50
2021/03/18 05:41:13;;;;;;;26.30;14.03;;;;;;;;;;5005477;28;20211;-51
2021/03/18 05:43:39;;;;;;;20.73;14.00;;;;;;;;;;5013798;28;20190;-47
2021/03/18 05:46:04;;;;;;;24.77;15.00;;;;;;;;;;5005063;28;20214;-47
2021/03/18 05:48:30;;;;;;;25.57;14.60;;;;;;;;;;4998792;28;20249;-49
2021/03/18 05:50:58;;;;;;;28.87;15.97;;;;;;;;;;5005092;28;20187;-51
2021/03/18 05:53:24;;;;;;;31.93;17.67;;;;;;;;;;5015687;28;20236;-49
2021/03/18 05:55:52;;;;;;;30.50;18.87;;;;;;;;;;5004269;28;20239;-50
2021/03/18 05:58:20;;;;;;;30.83;17.33;;;;;;;;;;5000125;28;20285;-48
2021/03/18 06:00:46;;;;;;;27.73;17.27;;;;;;;;;;5001696;28;20223;-49
2021/03/18 06:03:12;;;;;;;27.03;17.07;;;;;;;;;;4991360;28;20187;-51
2021/03/18 06:05:37;;;;;;;24.90;16.10;;;;;;;;;;5005710;28;20707;-48
2021/03/18 06:08:07;;;;;;;24.87;16.10;;;;;;;;;;5005078;28;20669;-52
2021/03/18 06:10:33;;;;;;;21.43;14.77;;;;;;;;;;5012649;28;20215;-51
2021/03/18 06:13:00;;;;;;;25.53;16.07;;;;;;;;;;5011137;28;20637;-49
2021/03/18 06:15:26;;;;;;;23.93;15.40;;;;;;;;;;5001368;28;20589;-48
2021/03/18 06:17:55;;;;;;;24.77;15.83;;;;;;;;;;5001533;28;20659;-47
2021/03/18 06:20:23;;;;;;;25.53;14.83;;;;;;;;;;5010908;28;20755;-48
2021/03/18 06:22:50;;;;;;;22.67;14.53;;;;;;;;;;5004141;28;20734;-50
2021/03/18 06:25:33;;;;;;;19.53;14.80;;;;;;;;;;4956277;28;20219;-49
2021/03/18 06:28:19;;;;;;;19.53;13.70;;;;;;;;;;5005428;28;20788;-51
2021/03/18 06:31:06;;;;;;;19.67;14.07;;;;;;;;;;5005880;28;20350;-49
2021/03/18 06:33:34;;;;;;;17.53;13.20;;;;;;;;;;4998343;28;20679;-50
2021/03/18 06:36:00;;;;;;;21.60;13.60;;;;;;;;;;5012566;28;20220;-53
2021/03/18 06:38:27;;;;;;;18.83;13.10;;;;;;;;;;5007257;28;20192;-51
2021/03/18 06:40:53;;;;;;;20.07;14.10;;;;;;;;;;5002607;28;20217;-49
2021/03/18 06:43:34;;;;;;;20.30;13.80;;;;;;;;;;5006103;28;20668;-48
2021/03/18 06:46:12;;;;;;;17.23;12.80;;;;;;;;;;5010715;28;20711;-51
2021/03/18 06:48:38;;;;;;;20.30;14.00;;;;;;;;;;5006538;28;20814;-49
2021/03/18 06:51:15;;;;;;;16.70;13.43;;;;;;;;;;5008169;28;20191;-48
2021/03/18 06:53:41;;;;;;;16.80;13.33;;;;;;;;;;4979338;28;20663;-48
2021/03/18 06:56:33;;;;;;;16.53;13.50;;;;;;;;;;5002197;28;20225;-53
2021/03/18 06:59:00;;;;;;;15.37;12.57;;;;;;;;;;5005035;28;20207;-51
2021/03/18 07:01:32;;;;;;;14.87;12.87;;;;;;;;;;5006670;28;20636;-50
2021/03/18 07:04:03;;;;;;;19.77;15.13;;;;;;;;;;4990610;28;20221;-48
2021/03/18 07:06:31;;;;;;;15.40;13.37;;;;;;;;;;4985695;28;20304;-50
2021/03/18 07:09:07;;;;;;;16.90;13.43;;;;;;;;;;4977214;28;20775;-56
2021/03/18 07:11:42;;;;;;;17.90;13.53;;;;;;;;;;5005736;28;20249;-51
2021/03/18 07:14:09;;;;;;;15.17;13.17;;;;;;;;;;4999067;28;20191;-49
2021/03/18 07:16:42;;;;;;;18.60;13.97;;;;;;;;;;4995625;28;20252;-51
2021/03/18 07:19:08;;;;;;;16.47;13.70;;;;;;;;;;5003288;28;20371;-49
2021/03/18 07:21:39;;;;;;;16.83;13.83;;;;;;;;;;5004453;28;20590;-50
2021/03/18 07:24:21;;;;;;;16.57;13.67;;;;;;;;;;5005873;28;20217;-50
2021/03/18 07:26:47;;;;;;;16.50;13.40;;;;;;;;;;5000869;28;20195;-51
2021/03/18 07:29:18;;;;;;;16.93;14.77;;;;;;;;;;5002939;28;20197;-53
2021/03/18 07:31:44;;;;;;;20.50;14.73;;;;;;;;;;4988436;28;20184;-51
2021/03/18 07:34:10;;;;;;;15.20;13.20;;;;;;;;;;5006398;28;20199;-52
2021/03/18 07:36:37;;;;;;;16.33;14.03;;;;;;;;;;5004219;28;20210;-52
2021/03/18 07:39:04;;;;;;;17.93;14.60;;;;;;;;;;5002872;28;20206;-51
2021/03/18 07:41:31;;;;;;;16.90;13.63;;;;;;;;;;5006104;28;20239;-50
2021/03/18 07:43:57;;;;;;;16.33;14.13;;;;;;;;;;5004173;28;20274;-50
2021/03/18 07:46:23;;;;;;;15.13;13.63;;;;;;;;;;5004838;28;20954;-50
2021/03/18 07:48:52;;;;;;;14.70;13.05;;;;;;;;;;5002634;28;20200;-49
2021/03/18 07:51:18;;;;;;;18.50;13.45;;;;;;;;;;5005453;28;20198;-51
2021/03/18 07:53:50;;;;;;;14.52;13.00;;;;;;;;;;5002757;28;20193;-52
2021/03/18 07:56:16;;;;;;;16.20;14.25;;;;;;;;;;5004155;28;20298;-52
2021/03/18 07:58:48;;;;;;;18.13;14.82;;;;;;;;;;5002960;28;20270;-50
2021/03/18 08:01:33;;;;;;;17.27;15.05;;;;;;;;;;5004521;28;20203;-53
2021/03/18 08:04:00;;;;;;;17.05;14.68;;;;;;;;;;5003692;28;20241;-50
2021/03/18 08:06:41;;;;;;;17.40;15.05;;;;;;;;;;5002799;28;20290;-51
2021/03/18 08:09:08;;;;;;;18.75;16.55;;;;;;;;;;5002655;28;20226;-54
2021/03/18 08:11:35;;;;;;;21.40;16.77;;;;;;;;;;5006555;28;20565;-52
2021/03/18 08:14:07;;;;;;;22.60;16.77;;;;;;;;;;5006210;28;20187;-50
2021/03/18 08:16:33;;;;;;;18.17;16.23;;;;;;;;;;5006196;28;20703;-51
2021/03/18 08:19:00;;;;;;;19.65;17.27;;;;;;;;;;5008412;28;20192;-52
2021/03/18 08:21:44;;;;;;;19.25;16.98;;;;;;;;;;5009215;28;20214;-50
2021/03/18 08:24:13;;;;;;;17.92;15.80;;;;;;;;;;5005328;28;20199;-50
2021/03/18 08:26:59;;;;;;;17.20;15.32;;;;;;;;;;5006902;28;20210;-54
2021/03/18 08:29:40;;;;;;;17.00;15.15;;;;;;;;;;5007745;28;20194;-51
2021/03/18 08:32:08;;;;;;;18.77;16.73;;;;;;;;;;5008350;28;20187;-51
2021/03/18 08:34:42;;;;;;;20.63;17.60;;;;;;;;;;5009007;28;20215;-51
2021/03/18 08:37:08;;;;;;;20.05;16.02;;;;;;;;;;4999601;28;20274;-49
2021/03/18 08:39:34;;;;;;;15.73;14.23;;;;;;;;;;5007630;28;20278;-47
2021/03/18 08:41:59;;;;;;;18.30;16.23;;;;;;;;;;4992126;28;20707;-51
2021/03/18 08:44:31;;;;;;;21.30;16.42;;;;;;;;;;5006402;28;20191;-48
2021/03/18 08:47:00;;;;;;;17.38;15.05;;;;;;;;;;5006117;28;20878;-52
2021/03/18 08:49:33;;;;;;;18.08;15.82;;;;;;;;;;5008431;28;20257;-52
2021/03/18 08:52:00;;;;;;;18.33;14.35;;;;;;;;;;5009006;28;20230;-51
2021/03/18 08:54:38;;;;;;;;;;;;;;;;;;;;;
2021/03/18 08:57:21;;;;;;;14.88;13.27;;;;;;;;;;4996555;28;20195;-53
2021/03/18 09:00:16;;;;;;;14.75;13.35;;;;;;;;;;4985253;28;20187;-51
2021/03/18 09:02:42;;;;;;;13.98;12.68;;;;;;;;;;5001282;28;20641;-50
2021/03/18 09:05:12;;;;;;;13.02;11.82;;;;;;;;;;5005132;28;20238;-51
2021/03/18 09:07:40;;;;;;;13.77;12.52;;;;;;;;;;4999234;28;20200;-52
2021/03/18 09:10:07;;;;;;;13.57;12.13;;;;;;;;;;4981330;28;20337;-55
2021/03/18 09:12:53;;;;;;;12.95;11.65;;;;;;;;;;4986080;28;20829;-51
2021/03/18 09:15:28;;;;;;;13.60;12.30;;;;;;;;;;5003350;28;20485;-52
2021/03/18 09:17:59;;;;;;;14.75;13.35;;;;;;;;;;4999598;28;20223;-52
2021/03/18 09:20:33;;;;;;;15.07;13.57;;;;;;;;;;5004218;28;20192;-51
2021/03/18 09:23:21;;;;;;;14.18;12.77;;;;;;;;;;4998269;28;20210;-51
2021/03/18 09:25:48;;;;;;;16.23;14.82;;;;;;;;;;5004064;28;20214;-54
2021/03/18 09:28:15;;;;;;;14.52;13.23;;;;;;;;;;4989057;28;20826;-54
2021/03/18 09:30:45;;;;;;;15.88;14.48;;;;;;;;;;5004993;28;20251;-52
2021/03/18 09:33:22;;;;;;;15.77;14.40;;;;;;;;;;5000094;28;20192;-54
2021/03/18 09:35:50;;;;;;;14.80;13.60;;;;;;;;;;5007766;28;20227;-58
2021/03/18 09:38:27;;;;;;;14.35;12.95;;;;;;;;;;5003236;28;20191;-52
2021/03/18 09:40:54;;;;;;;13.93;12.50;;;;;;;;;;4986821;28;20194;-55
2021/03/18 09:43:22;;;;;;;13.23;12.15;;;;;;;;;;4985754;28;20183;-54
2021/03/18 09:45:49;;;;;;;14.05;12.85;;;;;;;;;;5003712;28;20210;-54
2021/03/18 09:48:22;;;;;;;14.30;13.10;;;;;;;;;;5002702;28;20290;-53
2021/03/18 09:50:47;;;;;;;14.45;13.35;;;;;;;;;;4998212;28;20202;-56
2021/03/18 09:53:13;;;;;;;15.20;13.90;;;;;;;;;;5001084;28;20192;-53
2021/03/18 09:55:39;;;;;;;16.88;15.48;;;;;;;;;;5001199;28;20239;-50
2021/03/18 09:58:10;;;;;;;15.40;14.10;;;;;;;;;;4980768;28;20262;-50
2021/03/18 10:00:35;;;;;;;16.55;15.15;;;;;;;;;;5001382;28;20653;-53
2021/03/18 10:03:01;;;;;;;16.30;14.90;;;;;;;;;;4987313;28;20207;-55
2021/03/18 10:05:27;;;;;;;17.25;15.75;;;;;;;;;;5007831;28;20206;-51
2021/03/18 10:07:56;;;;;;;20.17;18.38;;;;;;;;;;5003258;28;20694;-51
2021/03/18 10:10:21;;;;;;;21.38;19.45;;;;;;;;;;4989843;28;20187;-56
2021/03/18 10:12:48;;;;;;;17.63;16.02;;;;;;;;;;5002760;28;20195;-51
2021/03/18 10:15:15;;;;;;;18.92;16.95;;;;;;;;;;5001341;28;20749;-51
2021/03/18 10:17:42;;;;;;;19.45;17.75;;;;;;;;;;5002929;28;20203;-52
2021/03/18 10:20:39;;;;;;;20.75;19.05;;;;;;;;;;5000924;28;20607;-49
2021/03/18 10:23:09;;;;;;;21.40;19.40;;;;;;;;;;4996001;28;20231;-54
2021/03/18 10:25:37;;;;;;;23.35;21.15;;;;;;;;;;4999263;28;20718;-53
2021/03/18 10:28:12;;;;;;;20.75;18.75;;;;;;;;;;5003663;28;20203;-55
2021/03/18 10:30:43;;;;;;;20.80;18.90;;;;;;;;;;4997473;28;20195;-50
2021/03/18 10:33:22;;;;;;;22.13;20.15;;;;;;;;;;4984955;28;20193;-51
2021/03/18 10:35:53;;;;;;;22.85;20.77;;;;;;;;;;5000640;28;20214;-50
2021/03/18 10:38:36;;;;;;;23.73;21.42;;;;;;;;;;5001520;28;20245;-54
2021/03/18 10:41:15;;;;;;;23.90;21.60;;;;;;;;;;4996677;28;20188;-49
2021/03/18 10:43:44;;;;;;;22.65;20.38;;;;;;;;;;5001639;28;20891;-50
2021/03/18 10:46:13;;;;;;;24.63;22.23;;;;;;;;;;4996554;28;20223;-50
2021/03/18 10:48:39;;;;;;;21.52;19.42;;;;;;;;;;4988055;28;20201;-49
2021/03/18 10:51:12;;;;;;;24.77;22.17;;;;;;;;;;4999127;28;20195;-49
2021/03/18 10:53:39;;;;;;;23.73;21.20;;;;;;;;;;4986077;28;20191;-53
2021/03/18 10:56:06;;;;;;;22.60;20.33;;;;;;;;;;4999258;28;20218;-50
2021/03/18 10:58:32;;;;;;;18.17;16.33;;;;;;;;;;4999128;28;20179;-50
2021/03/18 11:01:06;;;;;;;19.30;17.25;;;;;;;;;;5001855;28;20217;-52
2021/03/18 11:03:37;;;;;;;17.25;15.38;;;;;;;;;;5002887;28;20189;-52
2021/03/18 11:06:19;;;;;;;17.92;16.02;;;;;;;;;;5000827;28;20253;-50
2021/03/18 11:08:46;;;;;;;20.23;18.25;;;;;;;;;;4999020;28;20191;-53
2021/03/18 11:11:15;;;;;;;19.02;16.80;;;;;;;;;;4983995;28;20219;-50
2021/03/18 11:13:42;;;;;;;19.20;16.75;;;;;;;;;;4977189;28;20194;-55
2021/03/18 11:16:08;;;;;;;18.77;16.85;;;;;;;;;;5000769;28;20714;-55
2021/03/18 11:18:44;;;;;;;18.85;16.90;;;;;;;;;;5000261;28;20210;-47
2021/03/18 11:21:29;;;;;;;18.48;16.67;;;;;;;;;;4999014;28;20919;-50
2021/03/18 11:24:03;;;;;;;17.02;15.32;;;;;;;;;;5003302;28;20218;-50
2021/03/18 11:26:28;;;;;;;19.70;16.55;;;;;;;;;;4999803;28;20893;-50
2021/03/18 11:28:57;;;;;;;18.27;16.45;;;;;;;;;;4980869;28;20187;-49
2021/03/18 11:31:25;;;;;;;17.37;15.63;;;;;;;;;;5000730;28;20223;-54
2021/03/18 11:33:50;;;;;;;16.40;14.47;;;;;;;;;;5001236;28;20270;-52
2021/03/18 11:36:16;;;;;;;16.47;14.70;;;;;;;;;;4989314;28;20219;-57
2021/03/18 11:38:43;;;;;;;16.43;14.67;;;;;;;;;;4972622;28;20183;-56
2021/03/18 11:41:08;;;;;;;15.53;13.30;;;;;;;;;;4994100;28;20225;-50
2021/03/18 11:43:33;;;;;;;15.53;13.90;;;;;;;;;;5000437;28;20798;-49
2021/03/18 11:45:59;;;;;;;15.43;13.80;;;;;;;;;;4996211;28;20216;-55
2021/03/18 11:48:25;;;;;;;16.37;14.23;;;;;;;;;;4997701;28;20257;-50
2021/03/18 11:50:50;;;;;;;16.57;14.50;;;;;;;;;;4980133;28;20212;-54
2021/03/18 11:53:18;;;;;;;16.07;13.57;;;;;;;;;;4996904;28;20192;-49
2021/03/18 11:55:44;;;;;;;15.77;13.70;;;;;;;;;;5000279;28;20207;-52
2021/03/18 11:58:10;;;;;;;17.63;13.50;;;;;;;;;;5005572;28;20242;-52
2021/03/18 12:00:37;;;;;;;16.97;13.77;;;;;;;;;;5004631;28;20278;-52
2021/03/18 12:03:05;;;;;;;14.13;12.67;;;;;;;;;;5005704;28;20218;-55
2021/03/18 12:05:30;;;;;;;16.83;13.40;;;;;;;;;;5004053;28;20297;-52
2021/03/18 12:07:56;;;;;;;15.03;13.40;;;;;;;;;;4977808;28;20199;-55
2021/03/18 12:10:21;;;;;;;14.47;12.73;;;;;;;;;;4997674;28;20274;-51
2021/03/18 12:12:47;;;;;;;14.93;12.67;;;;;;;;;;5002996;28;20202;-51
2021/03/18 12:15:13;;;;;;;15.60;13.90;;;;;;;;;;5004507;28;20215;-49
2021/03/18 12:17:39;;;;;;;14.80;12.90;;;;;;;;;;5000741;28;20206;-50
2021/03/18 12:20:10;;;;;;;14.87;12.77;;;;;;;;;;5002886;28;20214;-50
2021/03/18 12:22:36;;;;;;;14.47;12.67;;;;;;;;;;4999224;28;20218;-55
2021/03/18 12:25:04;;;;;;;14.67;12.63;;;;;;;;;;5003296;28;20332;-51
2021/03/18 12:27:29;;;;;;;15.50;13.33;;;;;;;;;;5000164;28;20283;-50
2021/03/18 12:29:54;;;;;;;14.13;12.57;;;;;;;;;;5002128;28;20310;-53
2021/03/18 12:32:20;;;;;;;15.47;12.43;;;;;;;;;;5004652;28;20184;-50
2021/03/18 12:34:46;;;;;;;13.53;12.10;;;;;;;;;;4997399;28;20239;-51
2021/03/18 12:37:11;;;;;;;15.17;12.87;;;;;;;;;;4982484;28;20273;-50
2021/03/18 12:39:36;;;;;;;14.30;12.60;;;;;;;;;;5002818;28;20370;-50
2021/03/18 12:42:02;;;;;;;16.03;13.13;;;;;;;;;;4986076;28;20298;-52
2021/03/18 12:44:29;;;;;;;15.50;13.00;;;;;;;;;;4999762;28;20195;-50
2021/03/18 12:46:55;;;;;;;14.00;12.60;;;;;;;;;;4999989;28;20188;-52
2021/03/18 12:49:20;;;;;;;14.07;11.50;;;;;;;;;;5004424;28;20253;-50
2021/03/18 12:51:46;;;;;;;14.27;12.10;;;;;;;;;;4996675;28;20188;-49
2021/03/18 12:54:11;;;;;;;12.97;11.67;;;;;;;;;;4993855;28;20192;-50
2021/03/18 12:56:37;;;;;;;13.37;11.73;;;;;;;;;;5000439;28;20731;-50
2021/03/18 12:59:02;;;;;;;12.07;10.87;;;;;;;;;;5002001;28;20702;-47
2021/03/18 13:01:28;;;;;;;13.57;11.37;;;;;;;;;;4985883;28;20212;-49
2021/03/18 13:03:53;;;;;;;14.00;12.47;;;;;;;;;;4998537;28;20245;-52
2021/03/18 13:06:18;;;;;;;13.60;11.53;;;;;;;;;;4997063;28;20926;-50
2021/03/18 13:08:44;;;;;;;13.97;12.53;;;;;;;;;;4999181;28;20196;-51
2021/03/18 13:11:09;;;;;;;13.87;11.53;;;;;;;;;;5003576;28;20194;-53
2021/03/18 13:13:34;;;;;;;12.80;11.23;;;;;;;;;;4999591;28;20191;-48
2021/03/18 13:16:00;;;;;;;12.53;11.20;;;;;;;;;;4996438;28;20220;-52
2021/03/18 13:18:26;;;;;;;12.67;11.33;;;;;;;;;;4997768;28;20215;-53
2021/03/18 13:20:52;;;;;;;12.17;10.97;;;;;;;;;;5000927;28;20224;-48
2021/03/18 13:23:18;;;;;;;13.43;11.70;;;;;;;;;;4999567;28;20305;-51
2021/03/18 13:25:43;;;;;;;13.80;11.23;;;;;;;;;;5001400;28;20215;-50
2021/03/18 13:28:09;;;;;;;12.43;10.50;;;;;;;;;;4995367;28;20668;-51
2021/03/18 13:30:35;;;;;;;13.33;11.03;;;;;;;;;;5000548;28;20199;-54
2021/03/18 13:33:00;;;;;;;12.33;10.63;;;;;;;;;;5003573;28;20187;-50
2021/03/18 13:35:26;;;;;;;14.07;11.27;;;;;;;;;;5000173;28;20211;-54
2021/03/18 13:37:52;;;;;;;12.87;11.30;;;;;;;;;;4993805;28;20219;-53
2021/03/18 13:40:18;;;;;;;15.73;12.43;;;;;;;;;;4999226;28;20203;-51
2021/03/18 13:42:45;;;;;;;15.33;11.50;;;;;;;;;;5000988;28;20260;-48
2021/03/18 13:45:11;;;;;;;13.13;11.20;;;;;;;;;;5000872;28;20342;-55
2021/03/18 13:47:37;;;;;;;14.70;11.50;;;;;;;;;;5000636;28;20195;-53
2021/03/18 13:50:04;;;;;;;13.43;11.67;;;;;;;;;;5001387;28;20179;-50
2021/03/18 13:52:30;;;;;;;13.43;11.57;;;;;;;;;;4982007;28;20184;-51
2021/03/18 13:54:55;;;;;;;12.97;11.30;;;;;;;;;;4999195;28;20214;-53
2021/03/18 13:57:20;;;;;;;12.83;11.53;;;;;;;;;;4992198;28;20688;-49
2021/03/18 13:59:46;;;;;;;13.17;11.77;;;;;;;;;;5000920;28;20198;-53
2021/03/18 14:02:11;;;;;;;14.43;11.73;;;;;;;;;;5000682;28;20204;-49
2021/03/18 14:04:36;;;;;;;16.07;11.97;;;;;;;;;;5000059;28;20207;-49
2021/03/18 14:07:02;;;;;;;16.20;11.30;;;;;;;;;;4992269;28;20191;-50
2021/03/18 14:09:27;;;;;;;13.63;11.80;;;;;;;;;;4999642;28;20179;-53
2021/03/18 14:11:52;;;;;;;15.97;10.83;;;;;;;;;;4983235;28;20214;-55
2021/03/18 14:14:18;;;;;;;13.70;10.97;;;;;;;;;;4991874;28;20290;-52
2021/03/18 14:16:43;;;;;;;12.20;10.47;;;;;;;;;;5004328;28;20593;-53
2021/03/18 14:19:11;;;;;;;16.00;12.53;;;;;;;;;;4999066;28;20191;-50
2021/03/18 14:21:37;;;;;;;14.33;11.63;;;;;;;;;;4998584;28;20223;-52
2021/03/18 14:24:03;;;;;;;13.67;11.47;;;;;;;;;;5002925;28;20660;-51
2021/03/18 14:26:29;;;;;;;14.37;11.47;;;;;;;;;;4983644;28;20203;-49
2021/03/18 14:28:55;;;;;;;15.53;11.13;;;;;;;;;;5006268;28;20246;-49